sensor_id;sensor_type;location;lat;lon;timestamp;pressure;altitude;pressure_sealevel;temperature;humidity
54556;BME280;57291;37.520;15.106;2023-07-16T00:00:31;101159.00;;;27.29;61.69
54556;BME280;57291;37.520;15.106;2023-07-16T00:02:59;101161.38;;;27.27;60.96
54556;BME280;57291;37.520;15.106;2023-07-16T00:05:26;101161.00;;;27.25;60.48
54556;BME280;57291;37.520;15.106;2023-07-16T00:07:53;101155.00;;;27.23;58.98
54556;BME280;57291;37.520;15.106;2023-07-16T00:10:21;101149.44;;;27.20;57.93
54556;BME280;57291;37.520;15.106;2023-07-16T00:12:48;101146.63;;;27.20;57.17
54556;BME280;57291;37.520;15.106;2023-07-16T00:15:15;101152.63;;;27.18;56.70
54556;BME280;57291;37.520;15.106;2023-07-16T00:17:42;101149.44;;;27.16;56.21
54556;BME280;57291;37.520;15.106;2023-07-16T00:20:09;101145.81;;;27.12;55.38
54556;BME280;57291;37.520;15.106;2023-07-16T00:22:37;101140.63;;;27.10;55.04
54556;BME280;57291;37.520;15.106;2023-07-16T00:25:07;101135.84;;;27.07;54.89
54556;BME280;57291;37.520;15.106;2023-07-16T00:27:34;101129.09;;;27.08;55.38
54556;BME280;57291;37.520;15.106;2023-07-16T00:30:01;101131.88;;;27.08;54.69
54556;BME280;57291;37.520;15.106;2023-07-16T00:32:28;101135.47;;;27.09;53.82
54556;BME280;57291;37.520;15.106;2023-07-16T00:34:56;101129.88;;;27.12;51.71
54556;BME280;57291;37.520;15.106;2023-07-16T00:37:23;101124.72;;;27.18;50.67
54556;BME280;57291;37.520;15.106;2023-07-16T00:39:50;101130.69;;;27.20;50.74
54556;BME280;57291;37.520;15.106;2023-07-16T00:42:18;101129.91;;;27.20;51.08
54556;BME280;57291;37.520;15.106;2023-07-16T00:44:45;101128.69;;;27.24;50.30
54556;BME280;57291;37.520;15.106;2023-07-16T00:47:12;101130.69;;;27.27;50.06
54556;BME280;57291;37.520;15.106;2023-07-16T00:49:39;101121.94;;;27.25;50.02
54556;BME280;57291;37.520;15.106;2023-07-16T00:52:11;101125.91;;;27.28;50.08
54556;BME280;57291;37.520;15.106;2023-07-16T00:54:42;101123.50;;;27.26;50.20
54556;BME280;57291;37.520;15.106;2023-07-16T00:57:09;101125.13;;;27.20;50.41
54556;BME280;57291;37.520;15.106;2023-07-16T00:59:37;101118.75;;;27.16;50.69
54556;BME280;57291;37.520;15.106;2023-07-16T01:02:04;101116.75;;;27.17;52.02
54556;BME280;57291;37.520;15.106;2023-07-16T01:04:32;101115.97;;;27.16;54.90
54556;BME280;57291;37.520;15.106;2023-07-16T01:07:04;101117.94;;;27.12;55.41
54556;BME280;57291;37.520;15.106;2023-07-16T01:09:33;101114.31;;;27.08;56.59
54556;BME280;57291;37.520;15.106;2023-07-16T01:12:04;101106.38;;;27.03;56.24
54556;BME280;57291;37.520;15.106;2023-07-16T01:14:32;101109.16;;;26.99;56.78
54556;BME280;57291;37.520;15.106;2023-07-16T01:17:06;101105.16;;;27.00;56.19
54556;BME280;57291;37.520;15.106;2023-07-16T01:19:34;101100.78;;;27.06;52.94
54556;BME280;57291;37.520;15.106;2023-07-16T01:25:10;101102.38;;;27.07;53.06
54556;BME280;57291;37.520;15.106;2023-07-16T01:30:17;101101.59;;;27.03;52.77
54556;BME280;57291;37.520;15.106;2023-07-16T01:32:46;101095.63;;;27.05;52.36
54556;BME280;57291;37.520;15.106;2023-07-16T01:35:14;101093.22;;;27.03;52.48
54556;BME280;57291;37.520;15.106;2023-07-16T01:37:42;101086.06;;;26.99;52.50
54556;BME280;57291;37.520;15.106;2023-07-16T01:40:09;101096.00;;;27.00;52.33
54556;BME280;57291;37.520;15.106;2023-07-16T01:42:37;101086.84;;;27.03;52.09
54556;BME280;57291;37.520;15.106;2023-07-16T01:45:05;101087.63;;;27.07;51.77
54556;BME280;57291;37.520;15.106;2023-07-16T01:50:22;101088.84;;;27.09;56.93
54556;BME280;57291;37.520;15.106;2023-07-16T01:52:49;101080.84;;;27.04;58.77
54556;BME280;57291;37.520;15.106;2023-07-16T01:55:17;101080.06;;;27.00;59.07
54556;BME280;57291;37.520;15.106;2023-07-16T01:57:44;101078.47;;;26.99;57.21
54556;BME280;57291;37.520;15.106;2023-07-16T02:00:11;101076.06;;;26.98;56.94
54556;BME280;57291;37.520;15.106;2023-07-16T02:02:50;101076.88;;;26.98;56.68
54556;BME280;57291;37.520;15.106;2023-07-16T02:05:17;101075.69;;;26.96;55.83
54556;BME280;57291;37.520;15.106;2023-07-16T02:07:44;101076.50;;;26.93;55.21
54556;BME280;57291;37.520;15.106;2023-07-16T02:10:11;101076.09;;;26.90;55.09
54556;BME280;57291;37.520;15.106;2023-07-16T02:12:38;101072.91;;;26.92;53.89
54556;BME280;57291;37.520;15.106;2023-07-16T02:15:06;101070.50;;;26.90;52.56
54556;BME280;57291;37.520;15.106;2023-07-16T02:17:35;101074.50;;;26.89;52.59
54556;BME280;57291;37.520;15.106;2023-07-16T02:20:03;101078.88;;;26.90;52.56
54556;BME280;57291;37.520;15.106;2023-07-16T02:22:37;101069.31;;;26.92;51.71
54556;BME280;57291;37.520;15.106;2023-07-16T02:25:05;101071.28;;;26.95;51.18
54556;BME280;57291;37.520;15.106;2023-07-16T02:27:32;101062.53;;;26.96;50.85
54556;BME280;57291;37.520;15.106;2023-07-16T02:29:59;101068.13;;;27.00;51.06
54556;BME280;57291;37.520;15.106;2023-07-16T02:32:26;101076.06;;;27.01;51.44
54556;BME280;57291;37.520;15.106;2023-07-16T02:34:54;101065.72;;;27.02;51.40
54556;BME280;57291;37.520;15.106;2023-07-16T02:37:21;101066.53;;;27.02;51.35
54556;BME280;57291;37.520;15.106;2023-07-16T02:39:49;101069.69;;;27.01;51.40
54556;BME280;57291;37.520;15.106;2023-07-16T02:42:16;101063.34;;;26.97;51.30
54556;BME280;57291;37.520;15.106;2023-07-16T02:44:43;101073.28;;;26.98;53.42
54556;BME280;57291;37.520;15.106;2023-07-16T02:47:11;101066.50;;;26.92;54.79
54556;BME280;57291;37.520;15.106;2023-07-16T02:49:39;101065.34;;;26.85;54.48
54556;BME280;57291;37.520;15.106;2023-07-16T02:52:07;101068.53;;;26.80;53.68
54556;BME280;57291;37.520;15.106;2023-07-16T02:54:37;101065.72;;;26.77;53.83
54556;BME280;57291;37.520;15.106;2023-07-16T02:57:06;101067.72;;;26.80;53.86
54556;BME280;57291;37.520;15.106;2023-07-16T02:59:33;101068.09;;;26.78;53.87
54556;BME280;57291;37.520;15.106;2023-07-16T03:02:00;101068.09;;;26.78;53.23
54556;BME280;57291;37.520;15.106;2023-07-16T03:04:27;101070.09;;;26.81;52.73
54556;BME280;57291;37.520;15.106;2023-07-16T03:06:54;101070.50;;;26.83;52.85
54556;BME280;57291;37.520;15.106;2023-07-16T03:09:22;101067.34;;;26.88;52.03
54556;BME280;57291;37.520;15.106;2023-07-16T03:11:49;101071.31;;;26.91;51.60
54556;BME280;57291;37.520;15.106;2023-07-16T03:14:17;101069.31;;;26.92;51.36
54556;BME280;57291;37.520;15.106;2023-07-16T03:16:44;101069.31;;;26.95;51.45
54556;BME280;57291;37.520;15.106;2023-07-16T03:19:12;101073.69;;;26.96;51.14
54556;BME280;57291;37.520;15.106;2023-07-16T03:21:39;101064.53;;;26.96;51.51
54556;BME280;57291;37.520;15.106;2023-07-16T03:24:06;101065.34;;;26.96;51.50
54556;BME280;57291;37.520;15.106;2023-07-16T03:26:34;101067.31;;;26.96;51.02
54556;BME280;57291;37.520;15.106;2023-07-16T03:29:01;101068.13;;;26.96;51.09
54556;BME280;57291;37.520;15.106;2023-07-16T03:31:29;101069.31;;;26.99;50.62
54556;BME280;57291;37.520;15.106;2023-07-16T03:33:57;101070.91;;;27.03;49.66
54556;BME280;57291;37.520;15.106;2023-07-16T03:36:27;101068.91;;;27.00;50.07
54556;BME280;57291;37.520;15.106;2023-07-16T03:38:55;101070.50;;;26.94;49.86
54556;BME280;57291;37.520;15.106;2023-07-16T03:41:22;101067.34;;;26.88;50.32
54556;BME280;57291;37.520;15.106;2023-07-16T03:43:49;101074.88;;;26.84;49.91
54556;BME280;57291;37.520;15.106;2023-07-16T03:46:19;101077.66;;;26.88;50.28
54556;BME280;57291;37.520;15.106;2023-07-16T03:48:46;101077.66;;;26.88;50.77
54556;BME280;57291;37.520;15.106;2023-07-16T03:51:14;101078.47;;;26.85;50.59
54556;BME280;57291;37.520;15.106;2023-07-16T03:53:41;101082.06;;;26.85;50.27
54556;BME280;57291;37.520;15.106;2023-07-16T03:56:08;101084.06;;;26.88;50.33
54556;BME280;57291;37.520;15.106;2023-07-16T03:58:35;101086.03;;;26.92;50.38
54556;BME280;57291;37.520;15.106;2023-07-16T04:01:05;101083.25;;;26.92;49.84
54556;BME280;57291;37.520;15.106;2023-07-16T04:03:32;101080.06;;;26.93;50.16
54556;BME280;57291;37.520;15.106;2023-07-16T04:06:03;101086.84;;;26.96;49.87
54556;BME280;57291;37.520;15.106;2023-07-16T04:08:31;101082.44;;;26.95;49.91
54556;BME280;57291;37.520;15.106;2023-07-16T04:10:58;101091.22;;;26.97;50.03
54556;BME280;57291;37.520;15.106;2023-07-16T04:13:25;101098.38;;;26.98;49.80
54556;BME280;57291;37.520;15.106;2023-07-16T04:15:52;101086.84;;;26.96;49.46
54556;BME280;57291;37.520;15.106;2023-07-16T04:18:21;101096.38;;;26.98;48.87
54556;BME280;57291;37.520;15.106;2023-07-16T04:20:49;101088.44;;;27.00;49.04
54556;BME280;57291;37.520;15.106;2023-07-16T04:23:16;101092.00;;;27.04;48.91
54556;BME280;57291;37.520;15.106;2023-07-16T04:25:43;101096.41;;;27.09;48.71
54556;BME280;57291;37.520;15.106;2023-07-16T04:28:11;101086.47;;;27.15;48.21
54556;BME280;57291;37.520;15.106;2023-07-16T04:30:38;101090.84;;;27.20;48.36
54556;BME280;57291;37.520;15.106;2023-07-16T04:33:06;101091.63;;;27.24;48.62
54556;BME280;57291;37.520;15.106;2023-07-16T04:35:33;101095.59;;;27.33;48.23
54556;BME280;57291;37.520;15.106;2023-07-16T04:38:01;101097.19;;;27.42;48.88
54556;BME280;57291;37.520;15.106;2023-07-16T04:40:31;101092.78;;;27.48;48.76
54556;BME280;57291;37.520;15.106;2023-07-16T04:42:58;101090.34;;;27.57;49.27
54556;BME280;57291;37.520;15.106;2023-07-16T04:45:25;101098.75;;;27.64;49.41
54556;BME280;57291;37.520;15.106;2023-07-16T04:47:52;101095.91;;;27.71;49.41
54556;BME280;57291;37.520;15.106;2023-07-16T04:50:19;101094.31;;;27.81;50.00
54556;BME280;57291;37.520;15.106;2023-07-16T04:52:46;101100.66;;;27.89;49.57
54556;BME280;57291;37.520;15.106;2023-07-16T04:55:13;101105.47;;;27.85;49.74
54556;BME280;57291;37.520;15.106;2023-07-16T04:57:40;101098.66;;;27.93;49.85
54556;BME280;57291;37.520;15.106;2023-07-16T05:00:08;101095.03;;;27.99;49.83
54556;BME280;57291;37.520;15.106;2023-07-16T05:02:35;101092.59;;;28.09;49.83
54556;BME280;57291;37.520;15.106;2023-07-16T05:05:02;101106.91;;;28.18;49.95
54556;BME280;57291;37.520;15.106;2023-07-16T05:07:30;101108.44;;;28.29;49.82
54556;BME280;57291;37.520;15.106;2023-07-16T05:09:58;101118.78;;;28.43;50.12
54556;BME280;57291;37.520;15.106;2023-07-16T05:12:25;101116.28;;;28.56;50.89
54556;BME280;57291;37.520;15.106;2023-07-16T05:14:52;101118.63;;;28.68;51.99
54556;BME280;57291;37.520;15.106;2023-07-16T05:17:19;101125.75;;;28.77;55.62
54556;BME280;57291;37.520;15.106;2023-07-16T05:19:46;101120.91;;;28.84;55.59
54556;BME280;57291;37.520;15.106;2023-07-16T05:22:14;101120.47;;;28.86;56.33
54556;BME280;57291;37.520;15.106;2023-07-16T05:24:41;101128.88;;;28.86;58.88
54556;BME280;57291;37.520;15.106;2023-07-16T05:27:08;101130.84;;;28.89;59.96
54556;BME280;57291;37.520;15.106;2023-07-16T05:29:35;101128.03;;;28.92;60.27
54556;BME280;57291;37.520;15.106;2023-07-16T05:32:03;101132.31;;;29.08;61.67
54556;BME280;57291;37.520;15.106;2023-07-16T05:34:30;101134.59;;;29.24;61.82
54556;BME280;57291;37.520;15.106;2023-07-16T05:36:57;101140.13;;;29.72;60.94
54556;BME280;57291;37.520;15.106;2023-07-16T05:39:25;101141.63;;;30.72;57.22
54556;BME280;57291;37.520;15.106;2023-07-16T05:41:52;101139.00;;;31.39;55.14
54556;BME280;57291;37.520;15.106;2023-07-16T05:44:19;101140.97;;;31.39;54.91
54556;BME280;57291;37.520;15.106;2023-07-16T05:46:47;101133.06;;;31.10;55.80
54556;BME280;57291;37.520;15.106;2023-07-16T05:49:14;101144.22;;;30.90;55.47
54556;BME280;57291;37.520;15.106;2023-07-16T05:51:41;101149.72;;;30.67;56.04
54556;BME280;57291;37.520;15.106;2023-07-16T05:54:08;101148.16;;;30.66;56.58
54556;BME280;57291;37.520;15.106;2023-07-16T05:56:35;101145.47;;;30.58;56.62
54556;BME280;57291;37.520;15.106;2023-07-16T05:59:02;101151.28;;;30.44;56.37
54556;BME280;57291;37.520;15.106;2023-07-16T06:01:29;101145.41;;;31.13;55.25
54556;BME280;57291;37.520;15.106;2023-07-16T06:03:57;101149.50;;;32.18;52.44
54556;BME280;57291;37.520;15.106;2023-07-16T06:06:27;101165.00;;;33.61;49.64
54556;BME280;57291;37.520;15.106;2023-07-16T06:08:55;101167.31;;;34.63;46.72
54556;BME280;57291;37.520;15.106;2023-07-16T06:11:22;101168.22;;;34.85;45.75
54556;BME280;57291;37.520;15.106;2023-07-16T06:13:49;101169.31;;;34.88;45.95
54556;BME280;57291;37.520;15.106;2023-07-16T06:16:16;101172.50;;;35.03;45.14
54556;BME280;57291;37.520;15.106;2023-07-16T06:18:44;101175.88;;;34.97;46.38
54556;BME280;57291;37.520;15.106;2023-07-16T06:21:11;101186.16;;;34.91;46.05
54556;BME280;57291;37.520;15.106;2023-07-16T06:23:39;101190.22;;;34.90;46.05
54556;BME280;57291;37.520;15.106;2023-07-16T06:26:06;101184.91;;;34.92;46.04
54556;BME280;57291;37.520;15.106;2023-07-16T06:28:34;101186.84;;;34.95;46.37
54556;BME280;57291;37.520;15.106;2023-07-16T06:31:01;101195.75;;;34.68;44.88
54556;BME280;57291;37.520;15.106;2023-07-16T06:33:28;101195.16;;;34.48;46.01
54556;BME280;57291;37.520;15.106;2023-07-16T06:35:55;101194.34;;;33.93;46.49
54556;BME280;57291;37.520;15.106;2023-07-16T06:38:22;101200.44;;;34.33;45.73
54556;BME280;57291;37.520;15.106;2023-07-16T06:40:51;101198.28;;;34.24;45.73
54556;BME280;57291;37.520;15.106;2023-07-16T06:43:18;101199.13;;;33.79;47.14
54556;BME280;57291;37.520;15.106;2023-07-16T06:45:46;101204.56;;;34.03;47.45
54556;BME280;57291;37.520;15.106;2023-07-16T06:48:13;101200.84;;;34.06;47.24
54556;BME280;57291;37.520;15.106;2023-07-16T06:50:40;101202.66;;;34.25;47.00
54556;BME280;57291;37.520;15.106;2023-07-16T06:53:07;101199.34;;;34.01;47.14
54556;BME280;57291;37.520;15.106;2023-07-16T06:55:34;101212.88;;;33.77;48.70
54556;BME280;57291;37.520;15.106;2023-07-16T06:58:01;101210.69;;;33.69;49.06
54556;BME280;57291;37.520;15.106;2023-07-16T07:00:29;101215.63;;;34.10;48.47
54556;BME280;57291;37.520;15.106;2023-07-16T07:02:57;101214.22;;;34.02;48.54
54556;BME280;57291;37.520;15.106;2023-07-16T07:05:24;101208.34;;;33.96;49.13
54556;BME280;57291;37.520;15.106;2023-07-16T07:07:51;101207.81;;;34.01;49.37
54556;BME280;57291;37.520;15.106;2023-07-16T07:10:19;101212.41;;;34.37;49.69
54556;BME280;57291;37.520;15.106;2023-07-16T07:12:46;101207.56;;;34.50;49.36
54556;BME280;57291;37.520;15.106;2023-07-16T07:15:13;101205.81;;;34.57;50.74
54556;BME280;57291;37.520;15.106;2023-07-16T07:17:40;101218.66;;;34.58;50.16
54556;BME280;57291;37.520;15.106;2023-07-16T07:20:10;101210.22;;;34.70;49.93
54556;BME280;57291;37.520;15.106;2023-07-16T07:22:37;101215.19;;;34.92;50.00
54556;BME280;57291;37.520;15.106;2023-07-16T07:25:05;101209.13;;;34.39;51.43
54556;BME280;57291;37.520;15.106;2023-07-16T07:27:32;101215.69;;;34.48;51.27
54556;BME280;57291;37.520;15.106;2023-07-16T07:29:59;101213.94;;;34.13;51.94
54556;BME280;57291;37.520;15.106;2023-07-16T07:32:26;101218.53;;;33.77;51.56
54556;BME280;57291;37.520;15.106;2023-07-16T07:34:54;101219.78;;;33.44;55.18
54556;BME280;57291;37.520;15.106;2023-07-16T07:37:21;101225.38;;;32.95;57.66
54556;BME280;57291;37.520;15.106;2023-07-16T07:39:52;101227.19;;;32.68;56.78
54556;BME280;57291;37.520;15.106;2023-07-16T07:42:19;101226.69;;;32.34;56.20
54556;BME280;57291;37.520;15.106;2023-07-16T07:44:50;101230.53;;;32.43;57.35
54556;BME280;57291;37.520;15.106;2023-07-16T07:47:18;101230.13;;;32.45;57.13
54556;BME280;57291;37.520;15.106;2023-07-16T07:49:45;101235.28;;;32.27;57.57
54556;BME280;57291;37.520;15.106;2023-07-16T07:52:12;101239.66;;;31.88;59.47
54556;BME280;57291;37.520;15.106;2023-07-16T07:54:39;101233.25;;;32.07;60.78
54556;BME280;57291;37.520;15.106;2023-07-16T07:57:06;101230.66;;;32.16;59.49
54556;BME280;57291;37.520;15.106;2023-07-16T07:59:33;101234.13;;;32.24;60.48
54556;BME280;57291;37.520;15.106;2023-07-16T08:02:01;101239.88;;;32.37;58.59
54556;BME280;57291;37.520;15.106;2023-07-16T08:04:31;101250.34;;;32.16;60.04
54556;BME280;57291;37.520;15.106;2023-07-16T08:06:59;101251.44;;;31.79;59.91
54556;BME280;57291;37.520;15.106;2023-07-16T08:09:26;101245.44;;;32.00;59.65
54556;BME280;57291;37.520;15.106;2023-07-16T08:11:54;101249.25;;;32.30;58.88
54556;BME280;57291;37.520;15.106;2023-07-16T08:14:21;101259.00;;;32.65;54.84
54556;BME280;57291;37.520;15.106;2023-07-16T08:16:48;101254.78;;;32.74;52.28
54556;BME280;57291;37.520;15.106;2023-07-16T08:19:15;101252.75;;;32.74;52.37
54556;BME280;57291;37.520;15.106;2023-07-16T08:21:43;101255.13;;;32.59;53.08
54556;BME280;57291;37.520;15.106;2023-07-16T08:24:11;101251.00;;;32.44;50.61
54556;BME280;57291;37.520;15.106;2023-07-16T08:26:38;101251.38;;;32.46;48.88
54556;BME280;57291;37.520;15.106;2023-07-16T08:29:05;101253.78;;;32.64;48.61
54556;BME280;57291;37.520;15.106;2023-07-16T08:31:32;101259.16;;;32.58;49.67
54556;BME280;57291;37.520;15.106;2023-07-16T08:34:02;101251.81;;;32.64;49.00
54556;BME280;57291;37.520;15.106;2023-07-16T08:36:30;101251.09;;;32.77;44.23
54556;BME280;57291;37.520;15.106;2023-07-16T08:38:57;101247.53;;;32.92;43.54
54556;BME280;57291;37.520;15.106;2023-07-16T08:41:25;101245.94;;;33.44;44.14
54556;BME280;57291;37.520;15.106;2023-07-16T08:43:53;101249.16;;;33.75;40.90
54556;BME280;57291;37.520;15.106;2023-07-16T08:46:21;101256.66;;;33.33;43.56
54556;BME280;57291;37.520;15.106;2023-07-16T08:48:48;101256.16;;;33.54;45.71
54556;BME280;57291;37.520;15.106;2023-07-16T08:51:16;101254.09;;;33.38;38.43
54556;BME280;57291;37.520;15.106;2023-07-16T08:53:44;101248.19;;;33.33;36.29
54556;BME280;57291;37.520;15.106;2023-07-16T08:56:11;101251.03;;;33.33;38.59
54556;BME280;57291;37.520;15.106;2023-07-16T08:58:40;101249.53;;;33.28;38.20
54556;BME280;57291;37.520;15.106;2023-07-16T09:01:10;101252.25;;;33.48;41.65
54556;BME280;57291;37.520;15.106;2023-07-16T09:03:38;101244.88;;;33.54;38.64
54556;BME280;57291;37.520;15.106;2023-07-16T09:06:05;101243.19;;;33.73;37.80
54556;BME280;57291;37.520;15.106;2023-07-16T09:08:33;101242.78;;;34.46;36.04
54556;BME280;57291;37.520;15.106;2023-07-16T09:11:00;101245.78;;;34.81;33.89
54556;BME280;57291;37.520;15.106;2023-07-16T09:13:29;101245.16;;;35.15;33.44
54556;BME280;57291;37.520;15.106;2023-07-16T09:15:58;101245.69;;;35.35;32.58
54556;BME280;57291;37.520;15.106;2023-07-16T09:18:27;101248.91;;;35.46;32.92
54556;BME280;57291;37.520;15.106;2023-07-16T09:20:58;101247.44;;;35.67;32.97
54556;BME280;57291;37.520;15.106;2023-07-16T09:23:30;101245.44;;;35.30;32.92
54556;BME280;57291;37.520;15.106;2023-07-16T09:25:58;101252.91;;;35.23;33.36
54556;BME280;57291;37.520;15.106;2023-07-16T09:28:26;101240.28;;;35.15;33.47
54556;BME280;57291;37.520;15.106;2023-07-16T09:30:53;101240.53;;;35.08;33.54
54556;BME280;57291;37.520;15.106;2023-07-16T09:33:22;101241.19;;;35.12;32.66
54556;BME280;57291;37.520;15.106;2023-07-16T09:35:53;101249.19;;;35.27;31.27
54556;BME280;57291;37.520;15.106;2023-07-16T09:38:20;101254.38;;;35.28;30.95
54556;BME280;57291;37.520;15.106;2023-07-16T09:40:47;101245.78;;;35.44;29.86
54556;BME280;57291;37.520;15.106;2023-07-16T09:43:14;101244.75;;;35.38;29.12
54556;BME280;57291;37.520;15.106;2023-07-16T09:45:42;101246.69;;;35.54;28.60
54556;BME280;57291;37.520;15.106;2023-07-16T09:48:10;101249.91;;;35.65;28.51
54556;BME280;57291;37.520;15.106;2023-07-16T09:50:38;101243.94;;;35.51;30.69
54556;BME280;57291;37.520;15.106;2023-07-16T09:53:08;101248.88;;;35.24;34.04
54556;BME280;57291;37.520;15.106;2023-07-16T09:55:35;101242.75;;;35.13;32.73
54556;BME280;57291;37.520;15.106;2023-07-16T09:58:06;101255.97;;;35.04;34.38
54556;BME280;57291;37.520;15.106;2023-07-16T10:00:36;101261.94;;;34.93;34.67
54556;BME280;57291;37.520;15.106;2023-07-16T10:03:08;101250.31;;;34.91;35.09
54556;BME280;57291;37.520;15.106;2023-07-16T10:05:37;101252.56;;;34.70;35.95
54556;BME280;57291;37.520;15.106;2023-07-16T10:08:05;101254.22;;;34.55;36.05
54556;BME280;57291;37.520;15.106;2023-07-16T10:10:43;101258.78;;;34.36;37.65
54556;BME280;57291;37.520;15.106;2023-07-16T10:13:12;101251.94;;;33.92;40.13
54556;BME280;57291;37.520;15.106;2023-07-16T10:15:49;101259.66;;;33.58;42.99
54556;BME280;57291;37.520;15.106;2023-07-16T10:18:24;101256.66;;;33.16;44.16
54556;BME280;57291;37.520;15.106;2023-07-16T10:21:03;101258.25;;;33.01;44.45
54556;BME280;57291;37.520;15.106;2023-07-16T10:23:41;101252.69;;;32.98;46.06
54556;BME280;57291;37.520;15.106;2023-07-16T10:26:14;101247.47;;;32.60;47.07
54556;BME280;57291;37.520;15.106;2023-07-16T10:28:46;101253.22;;;32.33;49.64
54556;BME280;57291;37.520;15.106;2023-07-16T10:31:19;101246.75;;;32.36;48.32
54556;BME280;57291;37.520;15.106;2023-07-16T10:36:27;101249.47;;;31.99;51.14
54556;BME280;57291;37.520;15.106;2023-07-16T10:39:02;101239.81;;;31.77;53.04
54556;BME280;57291;37.520;15.106;2023-07-16T10:41:33;101243.09;;;31.72;53.85
54556;BME280;57291;37.520;15.106;2023-07-16T10:44:01;101247.34;;;31.60;54.92
54556;BME280;57291;37.520;15.106;2023-07-16T10:46:31;101236.25;;;31.53;55.40
54556;BME280;57291;37.520;15.106;2023-07-16T10:49:00;101240.81;;;31.43;56.15
54556;BME280;57291;37.520;15.106;2023-07-16T10:51:27;101238.13;;;31.36;57.24
54556;BME280;57291;37.520;15.106;2023-07-16T10:53:55;101241.78;;;31.33;58.63
54556;BME280;57291;37.520;15.106;2023-07-16T10:56:24;101240.13;;;31.36;57.45
54556;BME280;57291;37.520;15.106;2023-07-16T10:58:51;101249.97;;;31.47;58.95
54556;BME280;57291;37.520;15.106;2023-07-16T11:01:18;101237.31;;;31.36;58.64
54556;BME280;57291;37.520;15.106;2023-07-16T11:03:46;101238.00;;;31.43;58.72
54556;BME280;57291;37.520;15.106;2023-07-16T11:06:14;101234.56;;;31.56;57.76
54556;BME280;57291;37.520;15.106;2023-07-16T11:08:43;101241.84;;;31.53;57.32
54556;BME280;57291;37.520;15.106;2023-07-16T11:11:10;101238.28;;;31.49;55.41
54556;BME280;57291;37.520;15.106;2023-07-16T11:13:37;101236.53;;;31.82;55.73
54556;BME280;57291;37.520;15.106;2023-07-16T11:16:10;101240.59;;;32.21;53.42
54556;BME280;57291;37.520;15.106;2023-07-16T11:18:37;101239.19;;;32.53;52.80
54556;BME280;57291;37.520;15.106;2023-07-16T11:21:05;101232.44;;;32.66;51.68
54556;BME280;57291;37.520;15.106;2023-07-16T11:23:35;101241.09;;;32.76;52.58
54556;BME280;57291;37.520;15.106;2023-07-16T11:26:03;101241.50;;;32.58;50.70
54556;BME280;57291;37.520;15.106;2023-07-16T11:28:41;101227.44;;;32.74;54.70
54556;BME280;57291;37.520;15.106;2023-07-16T11:31:18;101232.94;;;32.81;51.88
54556;BME280;57291;37.520;15.106;2023-07-16T11:33:48;101230.59;;;32.96;54.66
54556;BME280;57291;37.520;15.106;2023-07-16T11:36:16;101241.66;;;32.67;53.46
54556;BME280;57291;37.520;15.106;2023-07-16T11:38:44;101231.84;;;32.75;51.25
54556;BME280;57291;37.520;15.106;2023-07-16T11:41:11;101237.75;;;33.01;54.76
54556;BME280;57291;37.520;15.106;2023-07-16T11:43:40;101228.97;;;32.79;52.61
54556;BME280;57291;37.520;15.106;2023-07-16T11:46:15;101236.81;;;32.87;51.18
54556;BME280;57291;37.520;15.106;2023-07-16T11:48:44;101234.97;;;32.97;52.44
54556;BME280;57291;37.520;15.106;2023-07-16T11:51:12;101248.09;;;33.20;54.40
54556;BME280;57291;37.520;15.106;2023-07-16T11:53:39;101241.44;;;33.14;53.68
54556;BME280;57291;37.520;15.106;2023-07-16T11:56:06;101234.19;;;32.97;56.93
54556;BME280;57291;37.520;15.106;2023-07-16T11:58:34;101244.44;;;32.51;58.12
54556;BME280;57291;37.520;15.106;2023-07-16T12:01:01;101245.28;;;32.28;58.85
54556;BME280;57291;37.520;15.106;2023-07-16T12:03:29;101235.72;;;32.25;56.52
54556;BME280;57291;37.520;15.106;2023-07-16T12:05:57;101239.59;;;32.31;59.42
54556;BME280;57291;37.520;15.106;2023-07-16T12:08:24;101246.38;;;32.14;61.93
54556;BME280;57291;37.520;15.106;2023-07-16T12:10:51;101235.84;;;31.98;63.13
54556;BME280;57291;37.520;15.106;2023-07-16T12:13:18;101246.88;;;31.85;63.45
54556;BME280;57291;37.520;15.106;2023-07-16T12:15:45;101239.81;;;31.77;64.17
54556;BME280;57291;37.520;15.106;2023-07-16T12:18:12;101249.31;;;31.40;64.59
54556;BME280;57291;37.520;15.106;2023-07-16T12:20:39;101254.25;;;31.28;63.78
54556;BME280;57291;37.520;15.106;2023-07-16T12:23:07;101244.31;;;31.24;64.28
54556;BME280;57291;37.520;15.106;2023-07-16T12:25:34;101247.19;;;30.93;64.83
54556;BME280;57291;37.520;15.106;2023-07-16T12:28:02;101258.44;;;30.90;68.44
54556;BME280;57291;37.520;15.106;2023-07-16T12:30:29;101250.06;;;30.86;66.65
54556;BME280;57291;37.520;15.106;2023-07-16T12:32:57;101253.88;;;30.99;68.09
54556;BME280;57291;37.520;15.106;2023-07-16T12:35:24;101252.09;;;31.13;67.64
54556;BME280;57291;37.520;15.106;2023-07-16T12:37:51;101248.28;;;30.99;68.26
54556;BME280;57291;37.520;15.106;2023-07-16T12:40:18;101254.84;;;30.89;68.46
54556;BME280;57291;37.520;15.106;2023-07-16T12:42:45;101241.94;;;30.95;70.02
54556;BME280;57291;37.520;15.106;2023-07-16T12:45:13;101245.97;;;30.94;70.44
54556;BME280;57291;37.520;15.106;2023-07-16T12:47:40;101241.88;;;30.99;71.63
54556;BME280;57291;37.520;15.106;2023-07-16T12:50:07;101241.53;;;30.97;69.59
54556;BME280;57291;37.520;15.106;2023-07-16T12:52:35;101250.91;;;30.83;71.02
54556;BME280;57291;37.520;15.106;2023-07-16T12:55:02;101257.25;;;30.91;71.11